Time;durP1;ratioP1;P1;durP2;ratioP2;P2;SDS_P1;SDS_P2;PMS_P1;PMS_P2;Temp;Humidity;BMP_temperature;BMP_pressure;BME280_temperature;BME280_humidity;BME280_pressure;Samples;Min_cycle;Max_cycle;Signal;HPM_P1;HPM_P2
2023/05/24 00:01:36;;;;;;;5.40;3.73;;;13.20;94.40;;;;;;5082599;28;20278;-72
2023/05/24 00:04:02;;;;;;;6.33;3.83;;;13.20;96.70;;;;;;5083010;28;20227;-72
2023/05/24 00:06:28;;;;;;;6.40;4.70;;;13.20;95.10;;;;;;5072537;28;20541;-71
2023/05/24 00:08:54;;;;;;;7.33;5.23;;;13.10;94.40;;;;;;5075995;28;20433;-72
2023/05/24 00:11:21;;;;;;;10.00;4.23;;;13.10;94.80;;;;;;5074073;28;20411;-72
2023/05/24 00:13:47;;;;;;;6.17;4.00;;;13.10;94.70;;;;;;5073698;28;20420;-71
2023/05/24 00:16:13;;;;;;;5.47;3.73;;;13.10;94.80;;;;;;5076805;28;20475;-72
2023/05/24 00:18:40;;;;;;;5.00;4.10;;;13.10;94.80;;;;;;5076917;28;20426;-71
2023/05/24 00:21:10;;;;;;;4.53;3.80;;;13.10;94.90;;;;;;5090577;28;20984;-71
2023/05/24 00:23:37;;;;;;;4.93;3.77;;;13.10;94.70;;;;;;5074791;28;20417;-71
2023/05/24 00:26:07;;;;;;;5.60;4.30;;;13.10;94.70;;;;;;5075173;28;20490;-71
2023/05/24 00:28:33;;;;;;;8.63;4.60;;;13.10;96.30;;;;;;5074329;28;20406;-72
2023/05/24 00:30:59;;;;;;;7.77;4.90;;;13.00;95.80;;;;;;5074749;28;20411;-72
2023/05/24 00:33:24;;;;;;;7.97;4.13;;;13.00;95.40;;;;;;5074376;28;20494;-71
2023/05/24 00:35:56;;;;;;;6.67;4.43;;;13.00;95.50;;;;;;5073668;28;20421;-71
2023/05/24 00:38:24;;;;;;;4.83;4.43;;;13.00;96.00;;;;;;5072926;28;20709;-71
2023/05/24 00:40:49;;;;;;;5.20;4.30;;;13.00;96.00;;;;;;5073146;28;20534;-72
2023/05/24 00:43:15;;;;;;;7.27;4.70;;;12.90;95.90;;;;;;5076978;28;20524;-71
2023/05/24 00:45:41;;;;;;;4.50;4.10;;;12.90;96.20;;;;;;5074483;28;20417;-72
2023/05/24 00:48:08;;;;;;;7.53;3.87;;;12.90;96.00;;;;;;5073971;28;20183;-71
2023/05/24 00:50:35;;;;;;;8.33;4.47;;;12.90;96.90;;;;;;5073467;28;20258;-72
2023/05/24 00:53:02;;;;;;;9.43;4.40;;;12.80;96.30;;;;;;5074182;28;20756;-71
2023/05/24 00:55:29;;;;;;;9.70;4.33;;;12.90;96.10;;;;;;5073295;28;20414;-72
2023/05/24 00:57:58;;;;;;;7.37;4.40;;;12.90;96.10;;;;;;5074345;28;20885;-71
2023/05/24 01:00:27;;;;;;;6.53;4.77;;;12.90;96.40;;;;;;5072747;28;20496;-72
2023/05/24 01:02:53;;;;;;;6.23;3.80;;;12.80;96.30;;;;;;5074147;28;20494;-71
2023/05/24 01:05:20;;;;;;;4.47;3.47;;;12.80;96.60;;;;;;5072962;28;20509;-71
2023/05/24 01:07:53;;;;;;;5.47;3.93;;;12.80;97.20;;;;;;5073172;28;20487;-71
2023/05/24 01:10:31;;;;;;;4.47;3.20;;;12.70;97.10;;;;;;5072237;28;20870;-72
2023/05/24 01:13:29;;;;;;;4.83;3.70;;;12.70;97.20;;;;;;5074015;28;20411;-71
2023/05/24 01:16:10;;;;;;;7.10;3.97;;;12.60;97.30;;;;;;5061304;28;20434;-71
2023/05/24 01:18:43;;;;;;;5.77;4.00;;;12.50;97.60;;;;;;5072725;28;20392;-71
2023/05/24 01:21:11;;;;;;;4.07;3.63;;;12.50;97.60;;;;;;5072374;28;20426;-71
2023/05/24 01:24:07;;;;;;;8.43;4.13;;;12.40;98.30;;;;;;5072689;28;20501;-71
2023/05/24 01:26:42;;;;;;;5.87;4.93;;;12.40;98.50;;;;;;5071570;28;20593;-71
2023/05/24 01:29:09;;;;;;;6.20;4.63;;;12.40;97.90;;;;;;5073606;28;20400;-72
2023/05/24 01:31:36;;;;;;;4.67;4.20;;;12.40;97.70;;;;;;5072414;28;20487;-71
2023/05/24 01:34:01;;;;;;;5.40;4.10;;;12.40;97.30;;;;;;5068077;28;20915;-71
2023/05/24 01:36:27;;;;;;;7.67;4.57;;;12.30;97.40;;;;;;5072531;28;20404;-71
2023/05/24 01:38:53;;;;;;;4.70;4.20;;;12.30;97.60;;;;;;5072551;28;20457;-72
2023/05/24 01:41:37;;;;;;;7.37;4.90;;;12.30;98.20;;;;;;5072344;28;20194;-71
2023/05/24 01:44:32;;;;;;;6.40;4.50;;;12.20;98.40;;;;;;5073515;28;20834;-72
2023/05/24 01:47:19;;;;;;;6.07;4.40;;;12.20;98.70;;;;;;5063763;28;20418;-71
2023/05/24 01:49:52;;;;;;;8.30;4.60;;;12.20;98.90;;;;;;5073521;28;20400;-71
2023/05/24 01:52:26;;;;;;;6.27;4.37;;;12.20;99.30;;;;;;5072487;28;20432;-71
2023/05/24 01:54:56;;;;;;;5.00;4.10;;;12.10;99.40;;;;;;5072726;28;20983;-71
2023/05/24 01:57:25;;;;;;;5.17;4.20;;;12.10;99.10;;;;;;5070861;28;20400;-72
2023/05/24 01:59:51;;;;;;;5.37;4.40;;;12.10;99.10;;;;;;5072935;28;20458;-71
2023/05/24 02:02:17;;;;;;;8.93;4.70;;;12.10;99.10;;;;;;5071615;28;20439;-71
2023/05/24 02:04:43;;;;;;;6.67;4.20;;;12.10;99.30;;;;;;5072280;28;20424;-72
2023/05/24 02:07:09;;;;;;;4.63;4.23;;;12.10;99.20;;;;;;5073059;28;20865;-71
2023/05/24 02:09:35;;;;;;;4.43;4.00;;;12.00;99.60;;;;;;5071866;28;20177;-71
2023/05/24 02:12:01;;;;;;;4.63;4.30;;;12.00;99.90;;;;;;5072453;28;20206;-71
2023/05/24 02:14:26;;;;;;;6.00;4.43;;;12.00;99.80;;;;;;5071830;28;20175;-72
2023/05/24 02:16:57;;;;;;;8.80;4.73;;;11.90;99.90;;;;;;5071331;28;20412;-72
2023/05/24 02:19:24;;;;;;;6.37;4.90;;;11.90;99.50;;;;;;5070603;28;20186;-71
2023/05/24 02:21:50;;;;;;;9.60;4.70;;;11.90;99.90;;;;;;5072241;28;20800;-71
2023/05/24 02:24:17;;;;;;;5.03;4.40;;;11.80;99.90;;;;;;5072476;28;20406;-71
2023/05/24 02:26:43;;;;;;;6.00;4.27;;;11.80;99.90;;;;;;5071699;28;20468;-72
2023/05/24 02:29:09;;;;;;;4.83;4.40;;;11.80;99.90;;;;;;5072249;28;20417;-72
2023/05/24 02:31:35;;;;;;;5.77;4.67;;;11.80;99.90;;;;;;5070794;28;20451;-72
2023/05/24 02:34:01;;;;;;;5.00;4.50;;;11.70;99.90;;;;;;5071044;28;20407;-71
2023/05/24 02:36:27;;;;;;;4.60;4.20;;;11.70;99.90;;;;;;5071633;28;20404;-72
2023/05/24 02:38:53;;;;;;;8.13;4.43;;;11.70;99.90;;;;;;5072234;28;20220;-71
2023/05/24 02:41:19;;;;;;;5.37;4.20;;;11.60;99.90;;;;;;5072010;28;20185;-71
2023/05/24 02:43:45;;;;;;;4.70;4.40;;;11.60;99.90;;;;;;5071858;28;20405;-71
2023/05/24 02:46:12;;;;;;;7.80;4.90;;;11.50;99.90;;;;;;5074832;28;20434;-72
2023/05/24 02:48:37;;;;;;;6.33;4.50;;;11.50;99.90;;;;;;5071872;28;20430;-71
2023/05/24 02:51:03;;;;;;;6.00;4.17;;;11.50;99.90;;;;;;5072441;28;20414;-71
2023/05/24 02:53:30;;;;;;;4.70;4.23;;;11.50;99.90;;;;;;5071932;28;20179;-72
2023/05/24 02:55:56;;;;;;;10.43;4.50;;;11.50;99.90;;;;;;5072506;28;20264;-71
2023/05/24 02:58:22;;;;;;;5.83;4.43;;;11.40;99.90;;;;;;5071940;28;20451;-71
2023/05/24 03:00:48;;;;;;;5.27;4.77;;;11.40;99.90;;;;;;5072072;28;20932;-71
2023/05/24 03:03:16;;;;;;;7.03;4.67;;;11.40;99.90;;;;;;5070072;28;20937;-72
2023/05/24 03:05:42;;;;;;;5.97;3.60;;;11.40;99.90;;;;;;5071813;28;20429;-71
2023/05/24 03:08:08;;;;;;;6.90;4.40;;;11.40;99.90;;;;;;5075249;28;20910;-73
2023/05/24 03:10:33;;;;;;;5.97;3.80;;;11.40;99.90;;;;;;5071261;28;20217;-72
2023/05/24 03:12:59;;;;;;;7.50;4.40;;;11.40;99.90;;;;;;5071864;28;20627;-72
2023/05/24 03:15:25;;;;;;;6.73;4.23;;;11.30;99.90;;;;;;5071101;28;20174;-72
2023/05/24 03:17:51;;;;;;;7.03;4.80;;;11.30;99.90;;;;;;5071969;28;20226;-72
2023/05/24 03:20:19;;;;;;;4.87;4.37;;;11.30;99.90;;;;;;5071548;28;20455;-72
2023/05/24 03:22:45;;;;;;;6.33;5.17;;;11.30;99.90;;;;;;5070953;28;20638;-72
2023/05/24 03:25:11;;;;;;;7.13;5.60;;;11.20;99.90;;;;;;5071851;28;20415;-72
2023/05/24 03:27:37;;;;;;;6.20;4.80;;;11.30;99.90;;;;;;5071116;28;20410;-72
2023/05/24 03:30:05;;;;;;;6.50;5.23;;;11.30;99.90;;;;;;5071499;28;20943;-72
2023/05/24 03:32:32;;;;;;;6.03;5.33;;;11.30;99.90;;;;;;5070303;28;20503;-72
2023/05/24 03:35:00;;;;;;;8.53;4.90;;;11.20;99.90;;;;;;5071437;28;20501;-71
2023/05/24 03:37:26;;;;;;;6.90;5.03;;;11.20;99.90;;;;;;5070480;28;20494;-72
2023/05/24 03:39:52;;;;;;;6.50;4.60;;;11.20;99.90;;;;;;5071810;28;20470;-71
2023/05/24 03:42:18;;;;;;;9.00;4.47;;;11.20;99.90;;;;;;5070379;28;20510;-72
2023/05/24 03:44:44;;;;;;;8.40;5.53;;;11.20;99.90;;;;;;5069734;28;20177;-72
2023/05/24 03:47:09;;;;;;;8.33;5.07;;;11.20;99.90;;;;;;5071703;28;20178;-72
2023/05/24 03:49:35;;;;;;;5.90;5.40;;;11.10;99.90;;;;;;5071077;28;20400;-73
2023/05/24 03:52:01;;;;;;;5.43;5.03;;;11.10;99.90;;;;;;5070344;28;20317;-73
2023/05/24 03:54:27;;;;;;;6.57;5.73;;;11.10;99.90;;;;;;5067644;28;20192;-73
2023/05/24 03:56:52;;;;;;;6.17;5.57;;;11.10;99.90;;;;;;5069724;28;20486;-72
2023/05/24 03:59:19;;;;;;;5.17;4.73;;;11.10;99.90;;;;;;5073864;28;20285;-72
2023/05/24 04:01:44;;;;;;;5.70;4.70;;;11.10;99.90;;;;;;5073118;28;20177;-72
2023/05/24 04:04:10;;;;;;;5.33;4.20;;;11.10;99.90;;;;;;5073980;28;20413;-72
2023/05/24 04:06:36;;;;;;;4.87;4.47;;;11.10;99.90;;;;;;5074319;28;20592;-72
2023/05/24 04:09:04;;;;;;;6.40;5.20;;;11.00;99.90;;;;;;5074629;28;20666;-72
2023/05/24 04:11:31;;;;;;;5.67;5.13;;;11.10;99.90;;;;;;5074090;28;20450;-73
2023/05/24 04:14:00;;;;;;;5.53;4.90;;;11.10;99.90;;;;;;5074907;28;20421;-73
2023/05/24 04:16:26;;;;;;;5.73;5.33;;;11.10;99.90;;;;;;5074336;28;20398;-72
2023/05/24 04:18:55;;;;;;;6.77;6.10;;;11.10;99.90;;;;;;5074725;28;20434;-72
2023/05/24 04:21:22;;;;;;;6.07;5.40;;;11.00;99.90;;;;;;5074763;28;20422;-72
2023/05/24 04:23:48;;;;;;;7.43;5.50;;;11.00;99.90;;;;;;5073115;28;20407;-72
2023/05/24 04:26:14;;;;;;;6.37;5.67;;;11.00;99.90;;;;;;5075574;28;20446;-72
2023/05/24 04:28:41;;;;;;;6.43;4.87;;;11.00;99.90;;;;;;5078646;28;20513;-73
2023/05/24 04:31:08;;;;;;;7.53;5.37;;;11.00;99.90;;;;;;5095107;28;20833;-72
2023/05/24 04:33:34;;;;;;;6.13;4.60;;;11.00;99.90;;;;;;5081911;28;20416;-73
2023/05/24 04:36:00;;;;;;;6.90;4.80;;;11.00;99.90;;;;;;5073288;28;20421;-72
2023/05/24 04:38:31;;;;;;;7.40;5.20;;;11.10;99.90;;;;;;5072179;28;20469;-73
2023/05/24 04:41:00;;;;;;;5.60;5.03;;;11.10;99.90;;;;;;5073935;28;20469;-73
2023/05/24 04:43:26;;;;;;;7.07;4.60;;;11.20;99.90;;;;;;5073899;28;20448;-72
2023/05/24 04:45:55;;;;;;;4.40;4.00;;;11.30;99.90;;;;;;5076062;28;20473;-73
2023/05/24 04:48:23;;;;;;;8.27;5.33;;;11.30;99.90;;;;;;5072880;28;20416;-73
2023/05/24 04:50:55;;;;;;;5.80;5.30;;;11.30;99.90;;;;;;5086912;28;20433;-73
2023/05/24 04:53:22;;;;;;;7.43;4.93;;;11.30;99.90;;;;;;5085191;28;20600;-73
2023/05/24 04:55:49;;;;;;;6.40;4.67;;;11.30;99.90;;;;;;5091125;28;21004;-73
2023/05/24 04:58:15;;;;;;;5.13;4.63;;;11.20;99.90;;;;;;5094351;28;20433;-72
2023/05/24 05:00:43;;;;;;;9.27;5.23;;;11.20;99.90;;;;;;5082599;28;20487;-71
2023/05/24 05:03:09;;;;;;;7.00;5.63;;;11.30;99.90;;;;;;5066604;28;20506;-71
2023/05/24 05:05:35;;;;;;;8.73;6.10;;;11.40;99.90;;;;;;5085042;28;20423;-71
2023/05/24 05:08:01;;;;;;;6.33;5.83;;;11.90;99.90;;;;;;5094225;28;20427;-71
2023/05/24 05:10:27;;;;;;;12.53;6.73;;;12.40;99.90;;;;;;5088633;28;20184;-71
2023/05/24 05:12:56;;;;;;;9.43;6.73;;;13.00;99.90;;;;;;5089516;28;20453;-71
2023/05/24 05:15:25;;;;;;;7.33;6.07;;;13.50;99.90;;;;;;5090661;28;20464;-71
2023/05/24 05:17:53;;;;;;;10.17;6.07;;;13.90;99.90;;;;;;5093177;28;20340;-71
2023/05/24 05:20:19;;;;;;;9.07;6.10;;;14.30;99.90;;;;;;5093869;28;20545;-71
2023/05/24 05:22:46;;;;;;;11.70;6.30;;;14.70;99.90;;;;;;5073624;28;20536;-71
2023/05/24 05:25:11;;;;;;;6.53;5.70;;;14.90;99.90;;;;;;5084401;28;20187;-71
2023/05/24 05:27:37;;;;;;;13.03;6.57;;;15.20;99.90;;;;;;5089457;28;20439;-72
2023/05/24 05:30:03;;;;;;;10.13;6.17;;;15.40;99.30;;;;;;5085279;28;20582;-72
2023/05/24 05:32:29;;;;;;;10.17;6.83;;;15.70;98.00;;;;;;5056728;28;20183;-71
2023/05/24 05:34:54;;;;;;;8.60;6.50;;;15.80;97.40;;;;;;5056760;28;20426;-71
2023/05/24 05:37:20;;;;;;;12.30;6.53;;;16.00;96.80;;;;;;5068214;28;20187;-71
2023/05/24 05:39:47;;;;;;;11.50;6.23;;;16.10;95.80;;;;;;5076620;28;20221;-71
2023/05/24 05:42:13;;;;;;;10.57;6.30;;;16.20;95.40;;;;;;5068705;28;20246;-71
2023/05/24 05:44:39;;;;;;;12.20;5.20;;;16.30;95.70;;;;;;5071393;28;20399;-71
2023/05/24 05:47:06;;;;;;;10.33;6.53;;;16.50;95.50;;;;;;5070028;28;20227;-72
2023/05/24 05:49:35;;;;;;;10.53;6.60;;;16.60;94.80;;;;;;5070389;28;20268;-71
2023/05/24 05:52:01;;;;;;;7.03;6.33;;;16.70;94.50;;;;;;5071850;28;20423;-71
2023/05/24 05:54:27;;;;;;;9.93;6.20;;;16.80;94.00;;;;;;5061926;28;20477;-71
2023/05/24 05:56:53;;;;;;;13.43;6.73;;;16.80;93.70;;;;;;5072010;28;20423;-71
2023/05/24 05:59:19;;;;;;;11.90;8.70;;;16.90;94.00;;;;;;5072707;28;20200;-71
2023/05/24 06:01:47;;;;;;;10.33;6.43;;;17.00;94.40;;;;;;5072338;28;20181;-72
2023/05/24 06:04:16;;;;;;;7.80;6.60;;;17.10;94.30;;;;;;5063537;28;20434;-72
2023/05/24 06:06:48;;;;;;;8.23;5.93;;;17.10;93.00;;;;;;5058943;28;20462;-72
2023/05/24 06:09:15;;;;;;;10.40;7.50;;;17.20;93.80;;;;;;5062930;28;20419;-72
2023/05/24 06:11:43;;;;;;;9.50;6.83;;;17.30;93.60;;;;;;5063326;28;20459;-71
2023/05/24 06:14:11;;;;;;;10.27;7.13;;;17.30;92.90;;;;;;5078537;28;20423;-74
2023/05/24 06:16:40;;;;;;;10.63;7.30;;;17.10;91.80;;;;;;5052352;28;20396;-76
2023/05/24 06:19:06;;;;;;;12.50;6.70;;;16.80;92.10;;;;;;5052831;28;20408;-72
2023/05/24 06:21:32;;;;;;;10.50;6.63;;;16.50;92.80;;;;;;5066424;28;20761;-72
2023/05/24 06:24:01;;;;;;;9.87;6.80;;;16.20;93.70;;;;;;5073107;28;20423;-71
2023/05/24 06:26:27;;;;;;;14.10;7.00;;;15.90;94.50;;;;;;5072832;28;20411;-71
2023/05/24 06:28:52;;;;;;;9.00;6.30;;;15.70;95.00;;;;;;5072148;28;20898;-71
2023/05/24 06:31:18;;;;;;;11.90;7.10;;;15.40;95.70;;;;;;5071319;28;20191;-70
2023/05/24 06:33:44;;;;;;;13.30;5.87;;;15.30;96.30;;;;;;5072056;28;20179;-70
2023/05/24 06:36:10;;;;;;;11.10;5.90;;;15.10;97.40;;;;;;5072293;28;20706;-70
2023/05/24 06:38:35;;;;;;;11.27;5.97;;;15.00;97.70;;;;;;5071563;28;20337;-70
2023/05/24 06:41:02;;;;;;;11.13;6.10;;;14.90;98.00;;;;;;5072513;28;20220;-70
2023/05/24 06:43:29;;;;;;;8.53;5.27;;;14.80;98.70;;;;;;5072401;28;20838;-70
2023/05/24 06:45:55;;;;;;;12.70;5.37;;;14.80;99.20;;;;;;5072040;28;20219;-71
2023/05/24 06:48:21;;;;;;;12.33;6.00;;;14.70;99.10;;;;;;5072434;28;20416;-70
2023/05/24 06:50:46;;;;;;;13.07;5.10;;;14.60;99.20;;;;;;5071661;28;20265;-70
2023/05/24 06:53:12;;;;;;;10.70;5.33;;;14.60;99.90;;;;;;5072510;28;20261;-70
2023/05/24 06:55:38;;;;;;;15.97;6.60;;;14.60;99.40;;;;;;5071853;28;20170;-70
2023/05/24 06:58:05;;;;;;;10.90;5.87;;;14.60;98.90;;;;;;5072491;28;20170;-71
2023/05/24 07:00:31;;;;;;;13.73;5.40;;;14.50;99.30;;;;;;5070943;28;20232;-71
2023/05/24 07:02:57;;;;;;;13.03;6.13;;;14.50;98.90;;;;;;5074284;28;20422;-71
2023/05/24 07:05:23;;;;;;;15.80;5.60;;;14.40;99.90;;;;;;5075438;28;20182;-71
2023/05/24 07:07:48;;;;;;;10.20;5.83;;;14.30;99.90;;;;;;5071819;28;20369;-71
2023/05/24 07:10:32;;;;;;;11.90;5.60;;;14.40;99.90;;;;;;5072482;28;20197;-71
2023/05/24 07:12:58;;;;;;;12.00;5.77;;;14.40;99.90;;;;;;5072083;28;20440;-71
2023/05/24 07:15:24;;;;;;;8.70;5.60;;;14.40;99.90;;;;;;5072359;28;20165;-70
2023/05/24 07:17:50;;;;;;;11.37;6.70;;;14.30;99.90;;;;;;5071711;28;20175;-71
2023/05/24 07:20:16;;;;;;;12.40;6.53;;;14.30;99.90;;;;;;5070947;28;20266;-71
2023/05/24 07:22:42;;;;;;;12.30;6.20;;;14.40;99.90;;;;;;5074912;28;20404;-71
2023/05/24 07:25:09;;;;;;;13.67;6.47;;;14.40;99.90;;;;;;5072562;28;20588;-70
2023/05/24 07:27:35;;;;;;;9.27;5.73;;;14.50;99.90;;;;;;5072010;28;20455;-70
2023/05/24 07:30:01;;;;;;;13.50;6.40;;;14.60;99.90;;;;;;5072042;28;20835;-72
2023/05/24 07:32:28;;;;;;;10.07;4.87;;;14.60;99.90;;;;;;5072013;28;20449;-71
2023/05/24 07:34:53;;;;;;;10.07;5.23;;;14.60;99.90;;;;;;5075311;28;20410;-71
2023/05/24 07:37:22;;;;;;;12.87;7.10;;;14.70;99.90;;;;;;5075559;28;20530;-71
2023/05/24 07:39:49;;;;;;;8.93;4.53;;;14.70;99.90;;;;;;5075282;28;20213;-72
2023/05/24 07:42:15;;;;;;;13.20;5.90;;;14.70;99.90;;;;;;5076089;28;20414;-72
2023/05/24 07:44:41;;;;;;;12.10;5.37;;;14.70;99.90;;;;;;5090955;28;20423;-72
2023/05/24 07:47:06;;;;;;;17.17;6.37;;;14.60;99.90;;;;;;5075006;28;20453;-72
2023/05/24 07:49:32;;;;;;;13.07;5.30;;;14.60;99.90;;;;;;5081412;28;20664;-71
2023/05/24 07:51:59;;;;;;;9.50;5.70;;;14.70;99.90;;;;;;5082328;28;20190;-71
2023/05/24 07:54:25;;;;;;;14.83;6.90;;;14.70;99.90;;;;;;5082480;28;20191;-72
2023/05/24 07:56:51;;;;;;;8.57;4.80;;;14.70;99.90;;;;;;5082004;28;20487;-73
2023/05/24 07:59:17;;;;;;;8.90;4.97;;;14.70;99.90;;;;;;5074972;28;20832;-72
2023/05/24 08:01:43;;;;;;;12.80;5.90;;;14.80;99.90;;;;;;5037138;28;20449;-71
2023/05/24 08:04:09;;;;;;;9.33;4.80;;;14.80;99.90;;;;;;5080177;28;20422;-71
2023/05/24 08:06:35;;;;;;;10.27;5.43;;;14.80;99.90;;;;;;5089563;28;20258;-71
2023/05/24 08:09:04;;;;;;;10.60;6.07;;;14.70;99.90;;;;;;5094791;28;20293;-71
2023/05/24 08:11:30;;;;;;;10.63;5.40;;;14.80;99.90;;;;;;5067984;28;20724;-73
2023/05/24 08:13:57;;;;;;;10.47;5.27;;;14.70;99.90;;;;;;5067139;28;20695;-72
2023/05/24 08:16:23;;;;;;;13.07;6.03;;;14.70;99.90;;;;;;5081418;28;20430;-71
2023/05/24 08:18:49;;;;;;;10.03;5.50;;;14.60;99.90;;;;;;5071070;28;20202;-71
2023/05/24 08:21:15;;;;;;;9.13;5.70;;;14.60;99.90;;;;;;5063136;28;20474;-71
2023/05/24 08:23:41;;;;;;;8.07;5.30;;;14.60;99.90;;;;;;5054057;28;20186;-71
2023/05/24 08:26:07;;;;;;;12.03;7.00;;;14.60;99.90;;;;;;5054706;28;20402;-70
2023/05/24 08:28:34;;;;;;;8.10;5.70;;;14.60;99.90;;;;;;5054973;28;20180;-70
2023/05/24 08:31:00;;;;;;;8.93;6.10;;;14.60;99.90;;;;;;5054464;28;20472;-71
2023/05/24 08:33:26;;;;;;;11.60;5.33;;;14.70;99.90;;;;;;5055027;28;20414;-71
2023/05/24 08:35:51;;;;;;;9.50;5.97;;;14.70;99.90;;;;;;5054280;28;20877;-70
2023/05/24 08:38:17;;;;;;;10.23;5.90;;;14.70;99.90;;;;;;5054365;28;20273;-71
2023/05/24 08:40:44;;;;;;;7.90;5.00;;;14.70;99.90;;;;;;5054175;28;20577;-71
2023/05/24 08:43:12;;;;;;;8.57;5.30;;;14.70;99.90;;;;;;5054778;28;20179;-71
2023/05/24 08:45:38;;;;;;;10.33;4.93;;;14.80;99.90;;;;;;5054257;28;20403;-70
2023/05/24 08:48:05;;;;;;;10.03;5.17;;;14.80;99.90;;;;;;5054364;28;20407;-71
2023/05/24 08:50:33;;;;;;;9.67;5.47;;;14.90;99.90;;;;;;5054910;28;20413;-71
2023/05/24 08:53:01;;;;;;;11.47;5.47;;;14.90;99.70;;;;;;5053937;28;20402;-71
2023/05/24 08:55:28;;;;;;;7.97;5.40;;;14.90;99.60;;;;;;5054579;28;20434;-71
2023/05/24 08:57:55;;;;;;;8.80;5.63;;;14.90;98.80;;;;;;5053880;28;20829;-70
2023/05/24 09:00:21;;;;;;;11.90;7.50;;;14.90;98.80;;;;;;5054353;28;20459;-71
2023/05/24 09:02:48;;;;;;;6.77;5.90;;;15.00;98.30;;;;;;5053785;28;20411;-70
2023/05/24 09:05:15;;;;;;;8.10;5.33;;;15.10;99.90;;;;;;5054408;28;20477;-71
2023/05/24 09:07:43;;;;;;;5.20;4.70;;;15.20;97.90;;;;;;5052279;28;20442;-71
2023/05/24 09:10:10;;;;;;;10.67;5.50;;;15.30;95.80;;;;;;5053039;28;20428;-70
2023/05/24 09:12:38;;;;;;;13.03;6.10;;;15.30;96.00;;;;;;5053364;28;20839;-71
2023/05/24 09:15:05;;;;;;;10.40;6.23;;;15.30;96.20;;;;;;5053462;28;20437;-70
2023/05/24 09:17:31;;;;;;;8.23;5.73;;;15.40;96.20;;;;;;5074036;28;20411;-71
2023/05/24 09:20:00;;;;;;;11.30;5.90;;;15.40;95.50;;;;;;5073393;28;20541;-70
2023/05/24 09:22:29;;;;;;;11.20;5.70;;;15.40;96.80;;;;;;5074077;28;20446;-71
2023/05/24 09:25:03;;;;;;;9.20;5.30;;;15.30;95.30;;;;;;5073381;28;20399;-71
2023/05/24 09:27:31;;;;;;;10.60;5.80;;;15.30;94.40;;;;;;5073525;28;20434;-70
2023/05/24 09:29:57;;;;;;;9.93;5.90;;;15.30;94.60;;;;;;5073301;28;20415;-71
2023/05/24 09:32:23;;;;;;;12.87;5.93;;;15.40;95.70;;;;;;5073964;28;20403;-71
2023/05/24 09:34:53;;;;;;;8.37;5.40;;;15.40;95.40;;;;;;5073464;28;20413;-71
2023/05/24 09:37:26;;;;;;;11.50;5.60;;;15.40;95.30;;;;;;5073299;28;20180;-70
2023/05/24 09:39:52;;;;;;;8.30;5.87;;;15.50;97.80;;;;;;5072958;28;20450;-71
2023/05/24 09:42:27;;;;;;;8.90;5.27;;;15.70;99.30;;;;;;5073687;28;20399;-71
2023/05/24 09:45:08;;;;;;;9.07;5.50;;;15.80;96.10;;;;;;5072662;28;20411;-70
2023/05/24 09:47:41;;;;;;;10.57;5.87;;;15.80;94.70;;;;;;5073573;28;20391;-71
2023/05/24 09:50:17;;;;;;;8.43;5.43;;;15.80;94.70;;;;;;5072956;28;20748;-71
2023/05/24 09:52:44;;;;;;;9.97;6.27;;;15.80;94.00;;;;;;5073083;28;20441;-71
2023/05/24 09:55:14;;;;;;;7.27;6.57;;;15.60;93.90;;;;;;5073249;28;20417;-71
2023/05/24 09:57:42;;;;;;;8.53;6.00;;;15.60;94.50;;;;;;5072046;28;20798;-71
2023/05/24 10:00:16;;;;;;;8.40;6.10;;;15.50;94.20;;;;;;5072599;28;20539;-71
2023/05/24 10:02:45;;;;;;;8.47;5.73;;;15.50;94.30;;;;;;5073417;28;20398;-71
2023/05/24 10:05:12;;;;;;;7.03;4.87;;;15.40;94.10;;;;;;5073157;28;20415;-70
2023/05/24 10:07:40;;;;;;;8.37;5.90;;;15.40;94.30;;;;;;5073480;28;20407;-70
2023/05/24 10:10:06;;;;;;;9.67;5.47;;;15.50;95.40;;;;;;5072387;28;20418;-71
2023/05/24 10:12:34;;;;;;;9.73;6.43;;;15.40;94.90;;;;;;5073048;28;20427;-70
2023/05/24 10:15:00;;;;;;;9.90;6.13;;;15.40;95.20;;;;;;5072716;28;20545;-72
2023/05/24 10:17:27;;;;;;;9.60;6.00;;;15.40;94.90;;;;;;5073010;28;20419;-71
2023/05/24 10:19:53;;;;;;;11.03;5.43;;;15.40;95.40;;;;;;5072247;28;20556;-71
2023/05/24 10:22:22;;;;;;;13.40;6.07;;;15.50;95.50;;;;;;5072956;28;20424;-71
2023/05/24 10:24:52;;;;;;;10.97;6.30;;;15.60;94.60;;;;;;5072033;28;20501;-71
2023/05/24 10:27:22;;;;;;;9.40;6.30;;;15.70;94.60;;;;;;5072319;28;20422;-71
2023/05/24 10:30:13;;;;;;;8.60;6.07;;;15.70;94.80;;;;;;5072284;28;20414;-71
2023/05/24 10:32:41;;;;;;;10.63;5.97;;;15.80;93.80;;;;;;5072794;28;20403;-71
2023/05/24 10:35:11;;;;;;;13.40;5.90;;;15.80;94.50;;;;;;5071869;28;20417;-70
2023/05/24 10:37:37;;;;;;;10.60;6.03;;;15.80;94.00;;;;;;5072347;28;20960;-69
2023/05/24 10:40:05;;;;;;;10.80;6.10;;;15.80;93.60;;;;;;5072020;28;20462;-70
2023/05/24 10:42:32;;;;;;;10.83;5.90;;;15.80;93.60;;;;;;5071422;28;20859;-70
2023/05/24 10:44:57;;;;;;;15.77;6.83;;;15.80;94.20;;;;;;5072033;28;20399;-69
2023/05/24 10:47:27;;;;;;;13.00;6.50;;;15.70;93.70;;;;;;5072423;28;20740;-71
2023/05/24 10:49:58;;;;;;;10.63;6.37;;;15.70;93.70;;;;;;5071993;28;20607;-71
2023/05/24 10:52:34;;;;;;;7.53;6.37;;;15.70;93.20;;;;;;5072531;28;20415;-71
2023/05/24 10:55:03;;;;;;;12.37;5.83;;;15.70;93.70;;;;;;5071971;28;20399;-71
2023/05/24 10:57:30;;;;;;;10.10;5.20;;;15.60;94.20;;;;;;5071028;28;20433;-70
2023/05/24 10:59:57;;;;;;;11.40;5.50;;;15.60;94.30;;;;;;5071533;28;21019;-70
2023/05/24 11:02:27;;;;;;;12.20;6.00;;;15.60;94.50;;;;;;5071930;28;20922;-71
2023/05/24 11:04:55;;;;;;;6.37;5.17;;;15.50;95.20;;;;;;5071262;28;20399;-70
2023/05/24 11:07:27;;;;;;;9.30;5.77;;;15.50;95.20;;;;;;5072961;28;20410;-71
2023/05/24 11:09:58;;;;;;;7.40;6.10;;;15.40;95.10;;;;;;5074827;28;20439;-70
2023/05/24 11:12:31;;;;;;;9.17;5.90;;;15.40;95.50;;;;;;5076571;28;20434;-71
2023/05/24 11:14:57;;;;;;;11.10;6.00;;;15.40;96.10;;;;;;5075949;28;20446;-71
2023/05/24 11:17:23;;;;;;;9.10;5.20;;;15.40;96.50;;;;;;5076381;28;20501;-71
2023/05/24 11:19:51;;;;;;;6.80;5.00;;;15.30;96.00;;;;;;5075375;28;20945;-71
2023/05/24 11:22:19;;;;;;;8.83;5.90;;;15.30;94.80;;;;;;5075779;28;20176;-71
2023/05/24 11:24:46;;;;;;;8.63;5.87;;;15.30;94.60;;;;;;5074826;28;20930;-71
2023/05/24 11:27:13;;;;;;;11.80;6.97;;;15.30;94.80;;;;;;5075114;28;20410;-70
2023/05/24 11:29:46;;;;;;;9.47;6.57;;;15.40;95.20;;;;;;5076235;28;20758;-70
2023/05/24 11:32:19;;;;;;;8.30;5.13;;;15.40;94.90;;;;;;5075482;28;20757;-70
2023/05/24 11:34:46;;;;;;;9.67;6.17;;;15.50;94.20;;;;;;5076037;28;20502;-71
2023/05/24 11:37:12;;;;;;;10.83;6.53;;;15.50;94.60;;;;;;5075168;28;20402;-70
2023/05/24 11:39:39;;;;;;;10.33;6.33;;;15.60;94.80;;;;;;5075972;28;20500;-71
2023/05/24 11:42:08;;;;;;;9.30;6.37;;;15.50;94.10;;;;;;5075183;28;20426;-70
2023/05/24 11:44:37;;;;;;;10.70;7.03;;;15.60;93.90;;;;;;5075837;28;20399;-70
2023/05/24 11:47:05;;;;;;;7.97;4.77;;;15.60;94.60;;;;;;5075256;28;20406;-71
2023/05/24 11:49:31;;;;;;;9.03;5.20;;;15.60;94.80;;;;;;5075771;28;20414;-71
2023/05/24 11:51:58;;;;;;;8.17;5.10;;;15.70;95.40;;;;;;5075187;28;20411;-70
2023/05/24 11:54:26;;;;;;;8.60;6.00;;;15.70;95.20;;;;;;5073078;28;20242;-70
2023/05/24 11:56:53;;;;;;;9.10;5.77;;;15.70;94.50;;;;;;5075099;28;20417;-70
2023/05/24 11:59:27;;;;;;;8.23;5.17;;;15.80;94.50;;;;;;5075549;28;20462;-70
2023/05/24 12:01:58;;;;;;;9.87;5.10;;;15.80;94.60;;;;;;5075070;28;20930;-71
2023/05/24 12:04:25;;;;;;;11.73;5.60;;;15.80;93.70;;;;;;5075625;28;20467;-70
2023/05/24 12:06:51;;;;;;;8.70;5.93;;;15.80;94.40;;;;;;5074956;28;20424;-70
2023/05/24 12:09:17;;;;;;;12.60;5.33;;;15.80;95.10;;;;;;5075824;28;20799;-70
2023/05/24 12:11:46;;;;;;;9.27;6.03;;;15.80;95.40;;;;;;5075397;28;20501;-70
2023/05/24 12:14:17;;;;;;;8.20;6.00;;;15.80;94.70;;;;;;5074793;28;20452;-69
2023/05/24 12:16:45;;;;;;;8.40;5.47;;;15.80;94.10;;;;;;5075249;28;20471;-70
2023/05/24 12:19:16;;;;;;;8.23;5.40;;;15.80;93.80;;;;;;5073502;28;20407;-69
2023/05/24 12:21:42;;;;;;;8.90;5.60;;;15.80;93.80;;;;;;5075374;28;20725;-71
2023/05/24 12:24:13;;;;;;;6.97;6.20;;;15.80;93.70;;;;;;5073139;28;20523;-71
2023/05/24 12:26:47;;;;;;;6.10;5.60;;;15.80;94.60;;;;;;5075220;28;20180;-71
2023/05/24 12:29:16;;;;;;;11.50;6.77;;;15.80;94.60;;;;;;5074489;28;20414;-71
2023/05/24 12:31:47;;;;;;;8.20;5.53;;;15.80;94.50;;;;;;5074689;28;20750;-71
2023/05/24 12:34:18;;;;;;;11.43;5.80;;;15.80;93.90;;;;;;5072900;28;20859;-70
2023/05/24 12:36:45;;;;;;;7.10;6.37;;;15.70;93.70;;;;;;5074923;28;20516;-72
2023/05/24 12:39:22;;;;;;;11.33;6.23;;;15.70;94.00;;;;;;5074407;28;20505;-71
2023/05/24 12:41:52;;;;;;;7.70;5.60;;;15.70;95.10;;;;;;5074814;28;20825;-70
2023/05/24 12:44:24;;;;;;;10.30;6.03;;;15.70;95.60;;;;;;5074621;28;20413;-69
2023/05/24 12:46:52;;;;;;;9.90;8.10;;;15.60;96.10;;;;;;5073513;28;20419;-70